Time;durP1;ratioP1;P1;durP2;ratioP2;P2;SDS_P1;SDS_P2;PMS_P1;PMS_P2;Temp;Humidity;BMP_temperature;BMP_pressure;BME280_temperature;BME280_humidity;BME280_pressure;Samples;Min_cycle;Max_cycle;Signal;HPM_P1;HPM_P2
2023/01/15 00:00:58;;;;;;;10.35;2.33;;;;;;;7.43;86.02;99837.84;5012487;28;20107;-65
2023/01/15 00:03:23;;;;;;;7.38;1.98;;;;;;;7.45;85.21;99846.63;4994802;28;20125;-65
2023/01/15 00:05:49;;;;;;;10.68;2.40;;;;;;;7.43;85.84;99848.38;5012349;28;20022;-65
2023/01/15 00:08:14;;;;;;;10.43;2.35;;;;;;;7.41;85.18;99831.69;5012447;28;20030;-65
2023/01/15 00:10:39;;;;;;;6.35;1.90;;;;;;;7.40;85.53;99843.06;5013738;28;20083;-65
2023/01/15 00:13:05;;;;;;;5.70;2.13;;;;;;;7.39;86.60;99838.69;5016145;28;20379;-65
2023/01/15 00:15:30;;;;;;;7.72;2.42;;;;;;;7.39;87.55;99842.19;5016110;28;20384;-65
2023/01/15 00:17:56;;;;;;;10.75;2.63;;;;;;;7.36;88.36;99844.81;4997083;28;20026;-65
2023/01/15 00:20:21;;;;;;;7.25;2.38;;;;;;;7.34;88.25;99846.56;4978743;28;20061;-65
2023/01/15 00:22:46;;;;;;;6.30;2.15;;;;;;;7.28;87.78;99836.00;4996257;28;20041;-65
2023/01/15 00:27:56;;;;;;;11.95;2.58;;;;;;;7.17;89.85;99830.66;4996825;28;20040;-65
2023/01/15 00:30:23;;;;;;;6.72;2.22;;;;;;;7.16;91.51;99826.28;4996481;28;20030;-65
2023/01/15 00:32:48;;;;;;;6.15;2.40;;;;;;;7.15;92.11;99832.41;4996382;28;20070;-64
2023/01/15 00:35:16;;;;;;;11.60;2.50;;;;;;;7.13;92.48;99838.50;4996207;28;20062;-65
2023/01/15 00:37:42;;;;;;;8.20;2.20;;;;;;;7.07;92.74;99836.72;4978672;28;20018;-65
2023/01/15 00:40:08;;;;;;;9.30;2.70;;;;;;;7.08;92.31;99827.94;4995869;28;20050;-65
2023/01/15 00:42:34;;;;;;;8.95;2.50;;;;;;;7.03;91.20;99825.28;4978415;28;20402;-64
2023/01/15 00:45:06;;;;;;;8.82;2.20;;;;;;;7.05;91.95;99833.16;4996065;28;20037;-65
2023/01/15 00:47:31;;;;;;;9.02;2.40;;;;;;;7.07;91.72;99851.59;4996124;28;20484;-65
2023/01/15 00:49:56;;;;;;;10.85;2.50;;;;;;;7.03;90.73;99850.69;4995886;28;20061;-65
2023/01/15 00:52:22;;;;;;;4.82;2.15;;;;;;;7.03;89.64;99858.56;4995847;28;20026;-64
2023/01/15 00:54:47;;;;;;;9.02;2.38;;;;;;;7.01;89.81;99855.91;4995783;28;20499;-65
2023/01/15 00:57:12;;;;;;;7.72;2.33;;;;;;;6.99;88.82;99867.28;4995776;28;20026;-64
2023/01/15 00:59:38;;;;;;;6.63;2.28;;;;;;;6.98;89.06;99870.75;4995748;28;20378;-64
2023/01/15 01:02:03;;;;;;;10.75;2.40;;;;;;;6.95;88.68;99860.22;4995659;28;20110;-64
2023/01/15 01:04:29;;;;;;;9.55;2.30;;;;;;;6.97;88.20;99863.75;4995612;28;20081;-65
2023/01/15 01:06:54;;;;;;;10.18;2.25;;;;;;;6.95;87.45;99868.97;4995581;28;20106;-64
2023/01/15 01:09:19;;;;;;;8.48;2.17;;;;;;;6.91;89.18;99866.31;4995605;28;20452;-64
2023/01/15 01:11:45;;;;;;;8.27;2.20;;;;;;;6.91;88.43;99855.81;4995312;28;20037;-64
2023/01/15 01:14:12;;;;;;;10.25;2.40;;;;;;;6.89;88.81;99858.41;4995436;28;20361;-64
2023/01/15 01:16:40;;;;;;;7.18;2.17;;;;;;;6.89;88.17;99854.91;4995396;28;20030;-64
2023/01/15 01:19:20;;;;;;;11.38;2.50;;;;;;;6.87;88.20;99861.91;4995475;28;20125;-67
2023/01/15 01:21:47;;;;;;;4.90;1.88;;;;;;;6.84;88.10;99864.50;4977441;28;20373;-64
2023/01/15 01:24:22;;;;;;;8.45;2.53;;;;;;;6.79;88.34;99859.19;4995252;28;20038;-64
2023/01/15 01:26:48;;;;;;;7.85;2.08;;;;;;;6.80;88.16;99870.56;4995224;28;20117;-65
2023/01/15 01:29:20;;;;;;;7.13;2.33;;;;;;;6.78;88.79;99865.31;4995169;28;20026;-64
2023/01/15 01:31:46;;;;;;;9.55;2.30;;;;;;;6.74;88.36;99859.16;4995136;28;20030;-64
2023/01/15 01:34:13;;;;;;;11.70;2.40;;;;;;;6.75;87.86;99854.78;4994947;28;20023;-64
2023/01/15 01:36:42;;;;;;;13.13;2.20;;;;;;;6.75;87.27;99853.03;4995296;28;20105;-65
2023/01/15 01:39:12;;;;;;;11.18;2.17;;;;;;;6.71;87.83;99860.84;4994720;28;20046;-64
2023/01/15 01:41:38;;;;;;;7.45;2.20;;;;;;;6.72;87.79;99867.84;4994861;28;20037;-64
2023/01/15 01:44:05;;;;;;;6.10;1.85;;;;;;;6.73;87.64;99873.16;4994803;28;20026;-64
2023/01/15 01:46:33;;;;;;;8.20;2.10;;;;;;;6.74;88.03;99869.66;4994755;28;20025;-64
2023/01/15 01:49:17;;;;;;;10.20;2.47;;;;;;;6.73;87.90;99862.66;4994850;28;20030;-64
2023/01/15 01:51:47;;;;;;;11.07;2.50;;;;;;;6.72;87.92;99868.78;4994810;28;20089;-64
2023/01/15 01:54:16;;;;;;;10.85;2.33;;;;;;;6.72;87.40;99859.97;4994722;28;20090;-64
2023/01/15 01:56:42;;;;;;;12.23;2.20;;;;;;;6.70;86.75;99859.09;4994547;28;20031;-64
2023/01/15 01:59:08;;;;;;;8.25;2.28;;;;;;;6.72;87.05;99868.78;4994544;28;20030;-64
2023/01/15 02:01:34;;;;;;;8.15;1.80;;;;;;;6.71;86.78;99866.09;4994887;28;20030;-64
2023/01/15 02:03:59;;;;;;;9.27;2.20;;;;;;;6.70;87.65;99874.84;4994559;28;20401;-64
2023/01/15 02:06:27;;;;;;;6.13;2.38;;;;;;;6.71;86.42;99872.22;4994708;28;20109;-64
2023/01/15 02:08:53;;;;;;;11.70;2.45;;;;;;;6.68;85.99;99869.59;4994446;28;20571;-64
2023/01/15 02:11:20;;;;;;;9.20;2.03;;;;;;;6.68;87.18;99863.44;4994213;28;20054;-64
2023/01/15 02:14:01;;;;;;;9.82;2.17;;;;;;;6.65;86.62;99882.69;4994257;28;20034;-64
2023/01/15 02:16:32;;;;;;;10.02;2.28;;;;;;;6.65;86.85;99871.31;4994313;28;20034;-64
2023/01/15 02:19:20;;;;;;;12.20;2.65;;;;;;;6.64;87.21;99872.19;4994583;28;20077;-64
2023/01/15 02:21:54;;;;;;;6.88;2.00;;;;;;;6.65;86.76;99868.69;4994150;28;20056;-64
2023/01/15 02:24:54;;;;;;;9.32;2.10;;;;;;;6.61;87.39;99859.00;4994334;28;20034;-64
2023/01/15 02:27:22;;;;;;;8.50;2.20;;;;;;;6.62;87.73;99858.13;4983852;28;20119;-64
2023/01/15 02:29:55;;;;;;;9.20;2.55;;;;;;;6.59;86.76;99853.72;4976956;28;20034;-64
2023/01/15 02:32:44;;;;;;;8.35;2.20;;;;;;;6.57;87.44;99851.97;4993704;28;20034;-64
2023/01/15 02:35:38;;;;;;;9.00;2.00;;;;;;;6.58;87.87;99853.72;4994283;28;20398;-64
2023/01/15 02:38:10;;;;;;;8.40;2.00;;;;;;;6.55;86.45;99840.56;4974367;28;20046;-64
2023/01/15 02:40:37;;;;;;;10.32;2.30;;;;;;;6.54;87.02;99847.56;4993830;28;20030;-64
2023/01/15 02:43:05;;;;;;;9.82;2.13;;;;;;;6.49;87.38;99842.25;4994018;28;20026;-66
2023/01/15 02:45:35;;;;;;;9.05;2.30;;;;;;;6.47;87.62;99845.75;4994138;28;20084;-64
2023/01/15 02:48:13;;;;;;;7.78;2.10;;;;;;;6.46;87.80;99850.09;4993963;28;20041;-64
2023/01/15 02:50:43;;;;;;;8.35;2.10;;;;;;;6.45;86.53;99824.72;4993631;28;20476;-64
2023/01/15 02:53:24;;;;;;;15.70;2.47;;;;;;;6.46;86.63;99830.84;4993713;28;20023;-64
2023/01/15 02:55:53;;;;;;;8.15;2.40;;;;;;;6.45;87.35;99840.47;4994047;28;20041;-64
2023/01/15 02:58:40;;;;;;;10.40;2.20;;;;;;;6.44;87.37;99829.97;4993728;28;20029;-64
2023/01/15 03:01:32;;;;;;;11.95;2.40;;;;;;;6.40;87.41;99836.91;4993571;28;20034;-63
2023/01/15 03:04:09;;;;;;;8.68;2.17;;;;;;;6.38;87.32;99838.66;4987056;28;20045;-64
2023/01/15 03:06:45;;;;;;;12.93;2.53;;;;;;;6.35;86.91;99838.59;4993643;28;20464;-64
2023/01/15 03:09:11;;;;;;;10.30;2.10;;;;;;;6.38;86.47;99845.59;4993665;28;20057;-64
2023/01/15 03:11:44;;;;;;;9.35;2.20;;;;;;;6.34;86.42;99835.94;4993287;28;20392;-64
2023/01/15 03:14:23;;;;;;;8.48;2.05;;;;;;;6.33;86.27;99837.69;4993504;28;20476;-64
2023/01/15 03:16:52;;;;;;;8.95;2.10;;;;;;;6.34;86.08;99841.19;4993453;28;20395;-63
2023/01/15 03:19:54;;;;;;;11.75;2.50;;;;;;;6.32;86.89;99838.56;5006027;28;20490;-64
2023/01/15 03:22:25;;;;;;;9.15;2.65;;;;;;;6.33;86.48;99842.94;4995756;28;20049;-63
2023/01/15 03:24:59;;;;;;;9.48;2.22;;;;;;;6.31;86.62;99830.69;5013251;28;20034;-64
2023/01/15 03:27:26;;;;;;;10.45;2.50;;;;;;;6.32;86.13;99832.44;5013065;28;20076;-64
2023/01/15 03:29:57;;;;;;;7.40;2.15;;;;;;;6.28;86.48;99827.16;5012986;28;20431;-64
2023/01/15 03:32:24;;;;;;;4.00;1.77;;;;;;;6.31;85.92;99833.31;5012988;28;20083;-64
2023/01/15 03:34:52;;;;;;;15.55;3.63;;;;;;;6.28;86.23;99828.88;5013138;28;20041;-64
2023/01/15 03:37:20;;;;;;;8.07;2.10;;;;;;;6.28;86.89;99823.66;5012810;28;20064;-64
2023/01/15 03:39:46;;;;;;;10.35;2.42;;;;;;;6.27;86.15;99828.00;5012735;28;20061;-64
2023/01/15 03:42:23;;;;;;;13.10;2.47;;;;;;;6.28;86.14;99826.28;5012637;28;20026;-66
2023/01/15 03:45:13;;;;;;;14.20;2.50;;;;;;;6.28;86.22;99827.16;5014594;28;20041;-64
2023/01/15 03:47:51;;;;;;;7.63;1.90;;;;;;;6.27;85.49;99829.75;5017020;28;20030;-64
2023/01/15 03:50:32;;;;;;;10.82;2.20;;;;;;;6.30;86.11;99834.19;5016706;28;20026;-64
2023/01/15 03:53:06;;;;;;;12.15;2.10;;;;;;;6.25;85.17;99834.09;5016892;28;20120;-64
2023/01/15 03:55:45;;;;;;;6.70;2.33;;;;;;;6.21;85.69;99824.44;5016638;28;20029;-64
2023/01/15 03:58:22;;;;;;;13.10;2.38;;;;;;;6.22;85.40;99824.47;5016590;28;20030;-64
2023/01/15 04:00:52;;;;;;;13.80;2.40;;;;;;;6.23;84.67;99833.22;5016610;28;20101;-64
2023/01/15 04:03:21;;;;;;;10.90;2.25;;;;;;;6.23;85.34;99825.34;5016630;28;20025;-64
2023/01/15 04:05:48;;;;;;;10.57;2.30;;;;;;;6.21;85.21;99827.03;5016390;28;20549;-63
2023/01/15 04:08:14;;;;;;;16.55;2.55;;;;;;;6.22;84.83;99831.47;5016300;28;20087;-64
2023/01/15 04:10:54;;;;;;;9.43;2.28;;;;;;;6.22;84.87;99819.22;5016590;28;20018;-64
2023/01/15 04:13:20;;;;;;;7.45;1.92;;;;;;;6.22;84.54;99824.47;5016565;28;20046;-64
2023/01/15 04:15:45;;;;;;;10.75;2.25;;;;;;;6.18;84.62;99820.03;5016219;28;20065;-64
2023/01/15 04:18:10;;;;;;;7.22;1.88;;;;;;;6.22;85.06;99819.22;5016189;28;20080;-63
2023/01/15 04:20:36;;;;;;;8.45;1.95;;;;;;;6.20;85.16;99820.94;5016417;28;20387;-64
2023/01/15 04:23:01;;;;;;;5.97;1.75;;;;;;;6.15;84.75;99816.50;5016031;28;20365;-63
2023/01/15 04:25:27;;;;;;;10.23;2.40;;;;;;;6.16;84.25;99829.63;5015997;28;20037;-64
2023/01/15 04:27:55;;;;;;;11.15;2.38;;;;;;;6.22;84.80;99826.22;5016041;28;20475;-64
2023/01/15 04:30:21;;;;;;;11.57;2.47;;;;;;;6.21;84.06;99816.56;5015883;28;20034;-63
2023/01/15 04:32:51;;;;;;;13.95;2.35;;;;;;;6.17;83.65;99810.41;5015809;28;20030;-64
2023/01/15 04:35:17;;;;;;;14.10;2.30;;;;;;;6.16;83.76;99813.88;5016143;28;20384;-64
2023/01/15 04:37:43;;;;;;;10.27;2.40;;;;;;;6.16;83.96;99826.13;5016007;28;20087;-64
2023/01/15 04:44:05;;;;;;;9.30;1.80;;;;;;;6.11;84.24;99819.94;5015719;28;20391;-64
2023/01/15 04:45:39;;;;;;;8.32;2.35;;;;;;;6.09;83.96;99837.41;5016146;28;20120;-64
2023/01/15 04:48:04;;;;;;;10.70;2.08;;;;;;;6.07;83.97;99837.38;5015627;28;20113;-64
2023/01/15 04:50:30;;;;;;;13.73;2.20;;;;;;;6.07;84.58;99834.75;5015589;28;20049;-64
2023/01/15 04:52:55;;;;;;;17.98;2.50;;;;;;;6.03;85.27;99839.06;5015495;28;20109;-64
2023/01/15 04:55:21;;;;;;;10.85;2.33;;;;;;;6.04;85.75;99847.84;5015153;28;20022;-64
2023/01/15 04:57:48;;;;;;;13.45;2.53;;;;;;;6.04;85.82;99850.47;5014947;28;20065;-64
2023/01/15 05:00:14;;;;;;;15.50;2.45;;;;;;;6.05;85.78;99843.47;5015395;28;20033;-64
2023/01/15 05:02:40;;;;;;;14.80;2.47;;;;;;;6.05;85.11;99851.34;5015615;28;20116;-64
2023/01/15 05:05:06;;;;;;;10.05;2.10;;;;;;;6.00;85.53;99841.69;5015797;28;20061;-64
2023/01/15 05:07:31;;;;;;;10.57;2.72;;;;;;;6.02;85.47;99839.94;5015408;28;20121;-64
2023/01/15 05:09:57;;;;;;;14.20;2.45;;;;;;;6.01;85.52;99834.69;5015130;28;20029;-64
2023/01/15 05:12:22;;;;;;;10.70;1.90;;;;;;;6.00;85.23;99836.44;5014938;28;20056;-64
2023/01/15 05:14:47;;;;;;;8.75;2.00;;;;;;;6.03;85.01;99846.06;5015041;28;20032;-64
2023/01/15 05:17:13;;;;;;;15.18;2.30;;;;;;;6.03;85.28;99851.31;5015143;28;20044;-63
2023/01/15 05:19:38;;;;;;;12.48;2.30;;;;;;;6.00;85.79;99848.66;5015067;28;20498;-63
2023/01/15 05:22:04;;;;;;;9.40;2.00;;;;;;;5.96;85.13;99839.00;5014892;28;20121;-64
2023/01/15 05:24:30;;;;;;;7.65;2.03;;;;;;;5.98;84.92;99853.00;5014878;28;20045;-64
2023/01/15 05:26:57;;;;;;;9.40;2.15;;;;;;;5.98;85.68;99843.38;5014795;28;20023;-64
2023/01/15 05:29:22;;;;;;;8.52;2.40;;;;;;;5.97;85.73;99840.75;5015021;28;20072;-63
2023/01/15 05:31:48;;;;;;;7.85;1.80;;;;;;;5.93;85.68;99829.34;5014792;28;20057;-64
2023/01/15 05:34:13;;;;;;;15.52;2.10;;;;;;;5.97;85.64;99840.75;5014699;28;20030;-64
2023/01/15 05:36:39;;;;;;;10.32;1.92;;;;;;;5.96;85.56;99832.00;5014732;28;20076;-64
2023/01/15 05:39:04;;;;;;;10.88;2.50;;;;;;;5.94;85.35;99835.47;5014367;28;20053;-63
2023/01/15 05:41:48;;;;;;;6.88;1.83;;;;;;;5.95;84.60;99824.09;5014590;28;20040;-64
2023/01/15 05:44:17;;;;;;;6.90;1.50;;;;;;;5.95;84.01;99830.25;5014690;28;20125;-64
2023/01/15 05:46:43;;;;;;;11.65;2.10;;;;;;;5.92;85.37;99827.59;5014614;28;20045;-64
2023/01/15 05:49:12;;;;;;;16.73;2.20;;;;;;;5.88;85.60;99807.41;5014583;28;20028;-63
2023/01/15 05:51:38;;;;;;;8.40;2.38;;;;;;;5.87;86.03;99823.13;5014387;28;20080;-64
2023/01/15 05:54:05;;;;;;;11.15;2.30;;;;;;;5.85;85.63;99823.06;5014578;28;20073;-63
2023/01/15 05:56:34;;;;;;;11.07;1.98;;;;;;;5.84;86.52;99821.31;5014316;28;20024;-64
2023/01/15 05:58:59;;;;;;;8.55;2.30;;;;;;;5.82;86.48;99825.66;5014599;28;20439;-64
2023/01/15 06:01:25;;;;;;;8.38;2.22;;;;;;;5.84;86.97;99820.44;5014481;28;20428;-64
2023/01/15 06:03:52;;;;;;;10.80;2.03;;;;;;;5.85;86.53;99820.47;5014198;28;20083;-64
2023/01/15 06:06:18;;;;;;;12.60;2.17;;;;;;;5.85;86.77;99817.84;5014210;28;20033;-63
2023/01/15 06:08:44;;;;;;;13.70;2.22;;;;;;;5.83;87.04;99824.81;5014274;28;20030;-63
2023/01/15 06:11:10;;;;;;;14.15;2.30;;;;;;;5.86;88.04;99837.06;5013829;28;20064;-63
2023/01/15 06:13:38;;;;;;;9.70;2.03;;;;;;;5.86;87.99;99829.19;5014243;28;20049;-64
2023/01/15 06:16:04;;;;;;;10.73;2.30;;;;;;;5.88;88.06;99830.13;5013916;28;20033;-63
2023/01/15 06:18:29;;;;;;;13.38;2.45;;;;;;;5.89;88.35;99829.25;5013923;28;20058;-63
2023/01/15 06:20:55;;;;;;;13.13;2.50;;;;;;;5.89;88.34;99840.63;5014149;28;20058;-63
2023/01/15 06:23:20;;;;;;;9.13;2.22;;;;;;;5.91;88.26;99856.34;5014080;28;20386;-64
2023/01/15 06:25:46;;;;;;;6.72;2.10;;;;;;;5.94;88.84;99851.19;5013889;28;20073;-63
2023/01/15 06:28:11;;;;;;;11.68;2.40;;;;;;;5.93;87.94;99839.81;4996216;28;20442;-64
2023/01/15 06:30:38;;;;;;;11.50;2.53;;;;;;;5.94;88.10;99849.44;5013835;28;20390;-64
2023/01/15 06:33:05;;;;;;;8.38;2.00;;;;;;;5.93;88.08;99846.81;5013648;28;20546;-64
2023/01/15 06:35:31;;;;;;;12.50;2.30;;;;;;;5.96;87.62;99841.63;5013722;28;20029;-64
2023/01/15 06:37:56;;;;;;;7.45;2.50;;;;;;;5.94;87.26;99852.06;5013496;28;20037;-65
2023/01/15 06:40:22;;;;;;;8.85;2.28;;;;;;;5.90;87.43;99852.84;4995966;28;20026;-65
2023/01/15 06:48:25;;;;;;;10.07;2.00;;;;;;;5.80;86.77;99847.47;5013871;28;20064;-65
2023/01/15 06:50:52;;;;;;;13.30;2.42;;;;;;;5.76;86.92;99865.78;5013483;28;20033;-64
2023/01/15 06:53:18;;;;;;;13.30;2.53;;;;;;;5.75;86.40;99852.66;5013381;28;20026;-65
2023/01/15 06:55:44;;;;;;;5.03;1.58;;;;;;;5.72;86.47;99850.88;5013512;28;20026;-64
2023/01/15 06:58:09;;;;;;;5.13;1.80;;;;;;;5.71;86.59;99856.09;5013352;28;20025;-64
2023/01/15 07:00:35;;;;;;;7.43;2.13;;;;;;;5.69;86.21;99868.28;5013291;28;20017;-64
2023/01/15 07:03:00;;;;;;;11.60;2.05;;;;;;;5.64;86.76;99857.72;5013289;28;20037;-64
2023/01/15 07:05:26;;;;;;;6.90;2.00;;;;;;;5.62;86.08;99858.59;5013278;28;20034;-64
2023/01/15 07:07:52;;;;;;;14.43;2.30;;;;;;;5.61;86.04;99857.72;5013181;28;20364;-64
2023/01/15 07:10:18;;;;;;;9.38;2.38;;;;;;;5.57;86.74;99866.38;5013462;28;20036;-64
2023/01/15 07:12:43;;;;;;;10.77;2.30;;;;;;;5.58;86.66;99869.88;5012903;28;20042;-64
2023/01/15 07:15:09;;;;;;;8.30;1.90;;;;;;;5.56;86.57;99876.81;5013199;28;20029;-64
2023/01/15 07:17:34;;;;;;;8.43;1.92;;;;;;;5.55;86.90;99886.44;5013107;28;20030;-65
2023/01/15 07:20:00;;;;;;;5.80;1.80;;;;;;;5.52;87.44;99881.13;5017329;28;20494;-64
2023/01/15 07:22:25;;;;;;;9.90;1.88;;;;;;;5.49;86.86;99881.97;5019596;28;20475;-64
2023/01/15 07:24:51;;;;;;;5.60;1.65;;;;;;;5.47;87.54;99881.06;5019823;28;20052;-64
2023/01/15 07:27:16;;;;;;;9.13;2.10;;;;;;;5.49;87.44;99874.13;5001995;28;20076;-64
2023/01/15 07:29:42;;;;;;;9.25;1.90;;;;;;;5.52;87.58;99882.03;5019488;28;20026;-64
2023/01/15 07:32:07;;;;;;;10.02;2.00;;;;;;;5.52;87.02;99886.38;5019509;28;20057;-64
2023/01/15 07:34:33;;;;;;;9.15;2.00;;;;;;;5.53;87.17;99894.28;5019466;28;20041;-64
2023/01/15 07:36:58;;;;;;;10.00;2.13;;;;;;;5.53;86.86;99896.91;5019760;28;20030;-64
2023/01/15 07:39:24;;;;;;;10.82;2.13;;;;;;;5.60;86.59;99886.50;4985432;28;20483;-64
2023/01/15 07:50:18;;;;;;;10.32;2.13;;;;;;;5.61;84.38;99891.78;5019668;28;20099;-64
2023/01/15 07:52:45;;;;;;;6.18;1.63;;;;;;;5.64;83.36;99901.41;5001696;28;20057;-64
2023/01/15 07:55:13;;;;;;;11.07;2.10;;;;;;;5.63;84.56;99900.53;5019333;28;20030;-64
2023/01/15 07:57:42;;;;;;;5.35;1.65;;;;;;;5.64;83.78;99910.16;5019329;28;20490;-64
2023/01/15 08:00:15;;;;;;;4.80;1.63;;;;;;;5.62;83.75;99914.50;5019191;28;20089;-64
2023/01/15 08:02:41;;;;;;;7.38;1.75;;;;;;;5.61;83.85;99903.97;5019202;28;20037;-64
2023/01/15 08:05:07;;;;;;;12.35;2.30;;;;;;;5.59;83.73;99903.09;5019125;28;20026;-64
2023/01/15 08:07:40;;;;;;;8.23;2.30;;;;;;;5.58;84.05;99902.22;5019102;28;20033;-64
2023/01/15 08:10:06;;;;;;;5.53;2.25;;;;;;;5.57;83.74;99912.63;5019379;28;20100;-64
2023/01/15 08:15:15;;;;;;;6.93;2.08;;;;;;;5.48;83.61;99906.44;5019522;28;20505;-64
2023/01/15 08:17:44;;;;;;;10.05;2.40;;;;;;;5.46;82.99;99910.75;5019040;28;20030;-64
2023/01/15 08:20:15;;;;;;;7.30;2.15;;;;;;;5.45;82.80;99911.59;5019282;28;20022;-64
2023/01/15 08:22:41;;;;;;;6.00;2.15;;;;;;;5.41;82.86;99920.28;5019123;28;20115;-64
2023/01/15 08:25:09;;;;;;;6.97;2.08;;;;;;;5.38;83.92;99922.84;5019071;28;20030;-64
2023/01/15 08:27:35;;;;;;;7.35;2.15;;;;;;;5.38;83.00;99929.81;5018983;28;20040;-64
2023/01/15 08:30:02;;;;;;;4.20;2.10;;;;;;;5.39;83.39;99921.09;5018801;28;20126;-64
2023/01/15 08:32:28;;;;;;;7.60;1.80;;;;;;;5.56;83.42;99922.25;5014929;28;20485;-64
2023/01/15 08:34:53;;;;;;;11.55;2.00;;;;;;;5.66;83.07;99921.56;5015864;28;20491;-65
2023/01/15 08:37:18;;;;;;;9.90;1.95;;;;;;;5.83;83.21;99924.44;5016123;28;20056;-65
2023/01/15 08:39:44;;;;;;;13.32;2.25;;;;;;;5.98;81.74;99924.69;5015675;28;20134;-66
2023/01/15 08:42:10;;;;;;;3.78;1.73;;;;;;;6.07;81.35;99915.19;5015521;28;20062;-64
2023/01/15 08:44:35;;;;;;;7.47;1.80;;;;;;;6.18;80.86;99922.34;5015899;28;20137;-66
2023/01/15 08:47:00;;;;;;;6.60;1.95;;;;;;;6.26;80.44;99917.19;5015765;28;20025;-65
2023/01/15 08:49:26;;;;;;;9.85;2.00;;;;;;;6.36;79.90;99926.06;5015702;28;20476;-65
2023/01/15 08:51:51;;;;;;;8.15;2.00;;;;;;;6.48;81.07;99913.09;5015938;28;20111;-65
2023/01/15 08:54:23;;;;;;;5.82;1.58;;;;;;;6.54;80.06;99915.78;5015480;28;20113;-65
2023/01/15 08:56:48;;;;;;;5.82;1.77;;;;;;;6.67;79.25;99914.19;5015867;28;20049;-65
2023/01/15 08:59:14;;;;;;;9.50;2.10;;;;;;;6.75;79.72;99902.91;5015486;28;20034;-65
2023/01/15 09:01:41;;;;;;;10.60;1.83;;;;;;;6.81;78.20;99903.84;5015480;28;20050;-65
2023/01/15 09:04:08;;;;;;;4.88;1.85;;;;;;;6.96;79.14;99898.75;5015388;28;20368;-64
2023/01/15 09:06:33;;;;;;;6.50;1.70;;;;;;;7.00;77.77;99903.16;4997818;28;20030;-64
2023/01/15 09:08:59;;;;;;;9.35;2.25;;;;;;;7.06;77.53;99903.22;5015323;28;20113;-64
2023/01/15 09:11:25;;;;;;;7.80;2.10;;;;;;;7.12;78.21;99894.53;5014983;28;20357;-64
2023/01/15 09:13:52;;;;;;;8.00;1.92;;;;;;;7.17;76.58;99898.09;5015472;28;20053;-65
2023/01/15 09:16:18;;;;;;;9.45;1.98;;;;;;;7.25;75.72;99904.28;5015390;28;20030;-64
2023/01/15 09:18:43;;;;;;;5.95;1.80;;;;;;;7.38;76.98;99900.91;5015334;28;20033;-65
2023/01/15 09:21:09;;;;;;;8.23;2.10;;;;;;;7.59;77.05;99896.69;5015009;28;20427;-65
2023/01/15 09:23:35;;;;;;;9.07;1.80;;;;;;;7.95;75.46;99896.03;5015053;28;20437;-65
2023/01/15 09:26:06;;;;;;;8.77;2.05;;;;;;;8.17;74.83;99890.00;5014950;28;20499;-65
2023/01/15 09:28:33;;;;;;;8.23;1.90;;;;;;;8.44;73.23;99909.50;5015020;28;20475;-64
2023/01/15 09:30:59;;;;;;;5.63;1.85;;;;;;;8.55;71.85;99930.59;5014918;28;20054;-64
2023/01/15 09:33:24;;;;;;;7.68;3.08;;;;;;;8.64;71.88;99901.66;5014754;28;20065;-64
2023/01/15 09:35:50;;;;;;;12.05;2.30;;;;;;;8.86;72.48;99890.31;5014882;28;20036;-65
2023/01/15 09:38:18;;;;;;;11.10;2.42;;;;;;;9.05;70.37;99899.13;5014438;28;20056;-65
2023/01/15 09:40:49;;;;;;;10.60;2.10;;;;;;;9.29;70.13;99895.63;5014854;28;20525;-65
2023/01/15 09:43:46;;;;;;;8.93;1.95;;;;;;;9.29;71.18;99895.63;5014380;28;20095;-65
2023/01/15 09:46:19;;;;;;;9.98;2.20;;;;;;;8.79;69.65;99907.00;5011648;28;20073;-65
2023/01/15 09:49:03;;;;;;;18.48;2.30;;;;;;;8.40;70.92;99903.34;5014573;28;20030;-64
2023/01/15 09:51:47;;;;;;;6.00;1.90;;;;;;;8.23;71.61;99904.97;5014606;28;20126;-64
2023/01/15 09:54:51;;;;;;;12.40;2.30;;;;;;;7.88;73.14;99924.06;5014320;28;20026;-64
2023/01/15 09:57:18;;;;;;;6.50;2.33;;;;;;;7.66;73.21;99911.63;5006978;28;20038;-64
2023/01/15 09:59:46;;;;;;;9.85;2.25;;;;;;;7.73;74.31;99892.41;4996634;28;20041;-64
2023/01/15 10:02:28;;;;;;;8.52;2.05;;;;;;;7.90;73.11;99909.16;5014291;28;20022;-65
2023/01/15 10:04:58;;;;;;;8.48;1.77;;;;;;;8.07;72.38;99908.41;5014354;28;20044;-65
2023/01/15 10:07:33;;;;;;;8.57;2.22;;;;;;;8.17;71.23;99926.84;5014494;28;20423;-64
2023/01/15 10:10:10;;;;;;;7.38;2.00;;;;;;;8.25;72.28;99921.63;5014245;28;20038;-64
2023/01/15 10:12:38;;;;;;;10.25;2.13;;;;;;;8.28;71.26;99919.91;5013881;28;20434;-64
2023/01/15 10:15:45;;;;;;;7.68;2.00;;;;;;;8.23;71.40;99937.44;5013911;28;20546;-64
2023/01/15 10:18:23;;;;;;;7.05;2.10;;;;;;;8.30;71.52;99930.44;4953544;29;20106;-64
2023/01/15 10:21:07;;;;;;;12.00;2.22;;;;;;;8.16;70.62;99917.22;5006235;28;20103;-64
2023/01/15 10:23:55;;;;;;;7.93;2.22;;;;;;;8.03;70.89;99933.81;5014039;28;20026;-64
2023/01/15 10:26:39;;;;;;;8.43;2.15;;;;;;;8.06;70.69;99949.63;4996203;28;20045;-64
2023/01/15 10:29:41;;;;;;;10.00;2.15;;;;;;;8.14;70.62;99924.22;5013850;28;20033;-64
2023/01/15 10:32:12;;;;;;;10.75;1.88;;;;;;;8.20;71.42;99928.63;5013201;28;20100;-64
2023/01/15 10:35:04;;;;;;;10.20;2.50;;;;;;;8.14;71.29;99920.72;5013605;28;20093;-64
2023/01/15 10:37:40;;;;;;;9.63;2.85;;;;;;;8.01;70.35;99917.13;5013997;28;20034;-64
2023/01/15 10:40:36;;;;;;;10.38;2.20;;;;;;;7.95;71.12;99932.88;5013458;28;20495;-64
2023/01/15 10:43:27;;;;;;;9.05;2.03;;;;;;;8.07;71.89;99934.69;5013361;28;20498;-64
2023/01/15 10:45:59;;;;;;;9.65;2.10;;;;;;;8.12;71.43;99915.44;5013123;28;20038;-64
2023/01/15 10:48:24;;;;;;;;;;;;;;;8.27;71.90;99928.69;5013884;28;20033;-64
2023/01/15 10:50:50;;;;;;;6.93;1.95;;;;;;;8.29;71.93;99913.78;5013517;28;19914;-64
2023/01/15 10:53:38;;;;;;;10.20;2.15;;;;;;;8.32;71.10;99918.19;5013110;28;20018;-64
2023/01/15 10:56:12;;;;;;;7.95;2.17;;;;;;;8.37;69.25;99918.22;5013368;28;20439;-64
2023/01/15 10:59:10;;;;;;;6.57;2.30;;;;;;;8.42;70.81;99912.09;5013294;28;20475;-64
2023/01/15 11:01:36;;;;;;;8.07;2.30;;;;;;;8.45;71.02;99933.19;4980052;28;20044;-64
2023/01/15 11:04:02;;;;;;;6.15;1.85;;;;;;;8.49;69.49;99928.81;5013495;28;20045;-64
2023/01/15 11:06:29;;;;;;;8.95;1.90;;;;;;;8.38;69.14;99933.16;4995757;28;20026;-65
2023/01/15 11:08:57;;;;;;;6.13;1.75;;;;;;;8.24;69.88;99926.03;5013325;28;20468;-64
2023/01/15 11:19:38;;;;;;;4.97;1.73;;;;;;;8.41;70.16;99920.88;5013457;28;20072;-64
2023/01/15 11:22:15;;;;;;;7.60;2.10;;;;;;;8.47;69.59;99948.97;5013385;28;20042;-64
2023/01/15 11:25:02;;;;;;;8.63;1.80;;;;;;;8.42;70.66;99919.13;5013076;28;20030;-64
2023/01/15 11:27:32;;;;;;;5.82;1.80;;;;;;;8.36;70.38;99914.69;4995524;28;20077;-64
2023/01/15 11:30:00;;;;;;;4.10;1.58;;;;;;;8.43;70.48;99932.28;5013271;28;20133;-64
2023/01/15 11:32:35;;;;;;;3.97;1.88;;;;;;;8.38;70.30;99934.03;5013070;28;20058;-64
2023/01/15 11:35:15;;;;;;;7.10;2.03;;;;;;;8.25;70.17;99900.59;5012995;28;20384;-64
2023/01/15 11:37:41;;;;;;;5.32;1.65;;;;;;;8.29;71.19;99929.56;5013093;28;20080;-64
2023/01/15 11:40:17;;;;;;;7.80;1.73;;;;;;;8.29;71.54;99947.09;5012727;28;20454;-64
2023/01/15 11:51:14;;;;;;;6.50;1.60;;;;;;;8.23;70.90;99926.03;5013269;28;20064;-64
2023/01/15 11:53:47;;;;;;;9.10;1.75;;;;;;;8.24;70.58;99943.56;5012917;28;20026;-63
2023/01/15 11:56:16;;;;;;;4.53;1.70;;;;;;;8.09;71.68;99944.34;5012818;28;20083;-63
2023/01/15 11:58:47;;;;;;;7.75;1.90;;;;;;;8.11;70.23;99947.88;5012704;28;20026;-63
2023/01/15 12:01:20;;;;;;;6.35;1.92;;;;;;;8.06;70.80;99946.09;5012824;28;20120;-63
2023/01/15 12:03:46;;;;;;;3.25;1.40;;;;;;;8.12;71.36;99936.47;5012880;28;20030;-63
2023/01/15 12:06:13;;;;;;;6.22;1.70;;;;;;;8.08;71.44;99934.69;5015065;28;20037;-63
2023/01/15 12:08:54;;;;;;;3.72;1.67;;;;;;;8.00;72.28;99933.78;4998829;28;20026;-63
2023/01/15 12:11:37;;;;;;;5.05;1.63;;;;;;;7.95;72.38;99930.25;5016459;28;20034;-63
2023/01/15 12:14:07;;;;;;;5.15;2.13;;;;;;;7.96;71.00;99940.75;5016667;28;20217;-63
2023/01/15 12:16:53;;;;;;;4.65;1.90;;;;;;;7.76;72.08;99947.66;5016594;28;20077;-63
2023/01/15 12:19:43;;;;;;;4.57;1.50;;;;;;;7.70;72.71;99930.06;5016268;28;20030;-63
2023/01/15 12:22:17;;;;;;;5.38;2.13;;;;;;;7.69;71.90;99912.53;5016183;28;20037;-63
2023/01/15 12:25:04;;;;;;;6.70;2.08;;;;;;;7.69;73.97;99916.91;5016202;28;20049;-63
2023/01/15 12:27:51;;;;;;;5.72;1.77;;;;;;;7.71;72.79;99917.81;5016442;28;20027;-63
2023/01/15 12:30:26;;;;;;;4.82;1.73;;;;;;;7.68;72.67;99921.28;5016086;28;20431;-63
2023/01/15 12:33:15;;;;;;;5.20;1.65;;;;;;;7.65;72.79;99909.88;5015984;28;20495;-63